sensor_id;sensor_type;location;lat;lon;timestamp;P1;durP1;ratioP1;P2;durP2;ratioP2
23404;SDS011;11875;49.356;2.718;2024-01-15T00:01:44;29.60;;;14.10;;
23404;SDS011;11875;49.356;2.718;2024-01-15T00:04:10;29.33;;;14.83;;
23404;SDS011;11875;49.356;2.718;2024-01-15T00:06:36;31.47;;;14.67;;
23404;SDS011;11875;49.356;2.718;2024-01-15T00:09:01;31.90;;;15.43;;
23404;SDS011;11875;49.356;2.718;2024-01-15T00:11:27;35.60;;;15.23;;
23404;SDS011;11875;49.356;2.718;2024-01-15T00:13:53;31.30;;;15.13;;
23404;SDS011;11875;49.356;2.718;2024-01-15T00:16:18;33.07;;;15.80;;
23404;SDS011;11875;49.356;2.718;2024-01-15T00:18:44;29.33;;;15.30;;
23404;SDS011;11875;49.356;2.718;2024-01-15T00:21:10;28.97;;;15.17;;
23404;SDS011;11875;49.356;2.718;2024-01-15T00:23:35;30.77;;;14.87;;
23404;SDS011;11875;49.356;2.718;2024-01-15T00:26:01;32.97;;;15.07;;
23404;SDS011;11875;49.356;2.718;2024-01-15T00:28:27;27.10;;;14.40;;
23404;SDS011;11875;49.356;2.718;2024-01-15T00:30:52;29.43;;;14.50;;
23404;SDS011;11875;49.356;2.718;2024-01-15T00:33:18;27.87;;;13.43;;
23404;SDS011;11875;49.356;2.718;2024-01-15T00:35:44;31.07;;;15.13;;
23404;SDS011;11875;49.356;2.718;2024-01-15T00:38:09;29.47;;;14.07;;
23404;SDS011;11875;49.356;2.718;2024-01-15T00:40:35;28.53;;;13.73;;
23404;SDS011;11875;49.356;2.718;2024-01-15T00:43:01;30.83;;;14.40;;
23404;SDS011;11875;49.356;2.718;2024-01-15T00:45:27;32.47;;;15.13;;
23404;SDS011;11875;49.356;2.718;2024-01-15T00:47:53;27.67;;;14.10;;
23404;SDS011;11875;49.356;2.718;2024-01-15T00:50:21;33.10;;;14.70;;
23404;SDS011;11875;49.356;2.718;2024-01-15T00:52:47;36.03;;;15.33;;
23404;SDS011;11875;49.356;2.718;2024-01-15T00:55:12;30.87;;;14.60;;
23404;SDS011;11875;49.356;2.718;2024-01-15T00:57:38;37.03;;;16.27;;
23404;SDS011;11875;49.356;2.718;2024-01-15T01:00:04;34.93;;;15.63;;
23404;SDS011;11875;49.356;2.718;2024-01-15T01:02:31;32.50;;;15.83;;
23404;SDS011;11875;49.356;2.718;2024-01-15T01:04:57;32.80;;;14.57;;
23404;SDS011;11875;49.356;2.718;2024-01-15T01:07:22;31.30;;;14.83;;
23404;SDS011;11875;49.356;2.718;2024-01-15T01:09:49;29.60;;;14.07;;
23404;SDS011;11875;49.356;2.718;2024-01-15T01:12:16;31.23;;;15.90;;
23404;SDS011;11875;49.356;2.718;2024-01-15T01:14:42;30.40;;;14.73;;
23404;SDS011;11875;49.356;2.718;2024-01-15T01:17:07;26.90;;;13.30;;
23404;SDS011;11875;49.356;2.718;2024-01-15T01:19:33;29.93;;;14.27;;
23404;SDS011;11875;49.356;2.718;2024-01-15T01:21:58;28.20;;;13.37;;
23404;SDS011;11875;49.356;2.718;2024-01-15T01:24:24;27.90;;;14.60;;
23404;SDS011;11875;49.356;2.718;2024-01-15T01:26:50;28.53;;;14.20;;
23404;SDS011;11875;49.356;2.718;2024-01-15T01:29:15;31.63;;;15.10;;
23404;SDS011;11875;49.356;2.718;2024-01-15T01:31:44;34.00;;;16.00;;
23404;SDS011;11875;49.356;2.718;2024-01-15T01:34:10;33.60;;;15.87;;
23404;SDS011;11875;49.356;2.718;2024-01-15T01:36:39;32.83;;;15.67;;
23404;SDS011;11875;49.356;2.718;2024-01-15T01:39:04;28.13;;;14.33;;
23404;SDS011;11875;49.356;2.718;2024-01-15T01:41:30;26.20;;;13.40;;
23404;SDS011;11875;49.356;2.718;2024-01-15T01:43:56;27.77;;;14.17;;
23404;SDS011;11875;49.356;2.718;2024-01-15T01:46:22;29.10;;;14.13;;
23404;SDS011;11875;49.356;2.718;2024-01-15T01:48:48;27.30;;;13.40;;
23404;SDS011;11875;49.356;2.718;2024-01-15T01:51:14;27.53;;;13.97;;
23404;SDS011;11875;49.356;2.718;2024-01-15T01:53:40;26.17;;;14.20;;
23404;SDS011;11875;49.356;2.718;2024-01-15T01:56:06;30.13;;;14.47;;
23404;SDS011;11875;49.356;2.718;2024-01-15T01:58:33;25.73;;;13.40;;
23404;SDS011;11875;49.356;2.718;2024-01-15T02:00:59;31.03;;;14.30;;
23404;SDS011;11875;49.356;2.718;2024-01-15T02:03:26;28.73;;;14.47;;
23404;SDS011;11875;49.356;2.718;2024-01-15T02:05:52;25.63;;;13.53;;
23404;SDS011;11875;49.356;2.718;2024-01-15T02:08:18;33.57;;;15.17;;
23404;SDS011;11875;49.356;2.718;2024-01-15T02:10:44;31.73;;;15.87;;
23404;SDS011;11875;49.356;2.718;2024-01-15T02:13:10;30.50;;;15.63;;
23404;SDS011;11875;49.356;2.718;2024-01-15T02:15:36;29.37;;;14.10;;
23404;SDS011;11875;49.356;2.718;2024-01-15T02:18:02;28.97;;;14.43;;
23404;SDS011;11875;49.356;2.718;2024-01-15T02:20:31;29.97;;;14.97;;
23404;SDS011;11875;49.356;2.718;2024-01-15T02:23:15;32.53;;;14.93;;
23404;SDS011;11875;49.356;2.718;2024-01-15T02:25:42;29.90;;;15.07;;
23404;SDS011;11875;49.356;2.718;2024-01-15T02:28:10;30.33;;;14.67;;
23404;SDS011;11875;49.356;2.718;2024-01-15T02:30:40;27.43;;;12.77;;
23404;SDS011;11875;49.356;2.718;2024-01-15T02:33:07;30.93;;;13.97;;
23404;SDS011;11875;49.356;2.718;2024-01-15T02:35:33;30.73;;;14.00;;
23404;SDS011;11875;49.356;2.718;2024-01-15T02:38:03;30.20;;;14.37;;
23404;SDS011;11875;49.356;2.718;2024-01-15T02:40:29;26.87;;;13.80;;
23404;SDS011;11875;49.356;2.718;2024-01-15T02:42:55;28.87;;;13.83;;
23404;SDS011;11875;49.356;2.718;2024-01-15T02:45:21;30.47;;;15.37;;
23404;SDS011;11875;49.356;2.718;2024-01-15T02:47:48;30.53;;;15.67;;
23404;SDS011;11875;49.356;2.718;2024-01-15T02:50:13;29.93;;;15.00;;
23404;SDS011;11875;49.356;2.718;2024-01-15T02:52:39;26.03;;;14.03;;
23404;SDS011;11875;49.356;2.718;2024-01-15T02:55:06;34.60;;;16.23;;
23404;SDS011;11875;49.356;2.718;2024-01-15T02:57:32;32.43;;;16.17;;
23404;SDS011;11875;49.356;2.718;2024-01-15T02:59:58;29.13;;;14.50;;
23404;SDS011;11875;49.356;2.718;2024-01-15T03:02:23;31.30;;;15.20;;
23404;SDS011;11875;49.356;2.718;2024-01-15T03:04:49;28.77;;;14.67;;
23404;SDS011;11875;49.356;2.718;2024-01-15T03:07:15;31.00;;;15.67;;
23404;SDS011;11875;49.356;2.718;2024-01-15T03:09:41;34.23;;;15.60;;
23404;SDS011;11875;49.356;2.718;2024-01-15T03:12:07;31.40;;;15.53;;
23404;SDS011;11875;49.356;2.718;2024-01-15T03:14:32;29.93;;;15.63;;
23404;SDS011;11875;49.356;2.718;2024-01-15T03:16:58;32.10;;;15.60;;
23404;SDS011;11875;49.356;2.718;2024-01-15T03:19:25;33.13;;;16.37;;
23404;SDS011;11875;49.356;2.718;2024-01-15T03:21:51;34.23;;;16.30;;
23404;SDS011;11875;49.356;2.718;2024-01-15T03:24:17;28.03;;;16.40;;
23404;SDS011;11875;49.356;2.718;2024-01-15T03:26:42;32.27;;;15.37;;
23404;SDS011;11875;49.356;2.718;2024-01-15T03:29:08;29.47;;;15.43;;
23404;SDS011;11875;49.356;2.718;2024-01-15T03:31:34;37.87;;;16.53;;
23404;SDS011;11875;49.356;2.718;2024-01-15T03:33:59;28.83;;;14.77;;
23404;SDS011;11875;49.356;2.718;2024-01-15T03:36:25;33.40;;;15.67;;
23404;SDS011;11875;49.356;2.718;2024-01-15T03:38:51;31.70;;;15.43;;
23404;SDS011;11875;49.356;2.718;2024-01-15T03:41:17;30.33;;;15.70;;
23404;SDS011;11875;49.356;2.718;2024-01-15T03:43:42;35.63;;;15.73;;
23404;SDS011;11875;49.356;2.718;2024-01-15T03:46:08;32.53;;;15.83;;
23404;SDS011;11875;49.356;2.718;2024-01-15T03:48:39;30.43;;;15.27;;
23404;SDS011;11875;49.356;2.718;2024-01-15T03:51:05;31.40;;;14.70;;
23404;SDS011;11875;49.356;2.718;2024-01-15T03:53:30;30.40;;;15.30;;
23404;SDS011;11875;49.356;2.718;2024-01-15T03:55:56;35.27;;;15.83;;
23404;SDS011;11875;49.356;2.718;2024-01-15T03:58:22;39.37;;;16.03;;
23404;SDS011;11875;49.356;2.718;2024-01-15T04:00:48;35.83;;;15.53;;
23404;SDS011;11875;49.356;2.718;2024-01-15T04:03:14;36.97;;;15.33;;
23404;SDS011;11875;49.356;2.718;2024-01-15T04:05:39;30.63;;;14.83;;
23404;SDS011;11875;49.356;2.718;2024-01-15T04:08:05;32.83;;;14.70;;
23404;SDS011;11875;49.356;2.718;2024-01-15T04:10:31;35.27;;;15.17;;
23404;SDS011;11875;49.356;2.718;2024-01-15T04:12:57;33.87;;;16.57;;
23404;SDS011;11875;49.356;2.718;2024-01-15T04:15:24;30.23;;;14.77;;
23404;SDS011;11875;49.356;2.718;2024-01-15T04:17:50;33.47;;;15.37;;
23404;SDS011;11875;49.356;2.718;2024-01-15T04:20:16;32.77;;;16.20;;
23404;SDS011;11875;49.356;2.718;2024-01-15T04:22:43;32.90;;;16.17;;
23404;SDS011;11875;49.356;2.718;2024-01-15T04:25:09;27.87;;;14.37;;
23404;SDS011;11875;49.356;2.718;2024-01-15T04:27:34;36.73;;;15.47;;
23404;SDS011;11875;49.356;2.718;2024-01-15T04:30:00;31.10;;;14.60;;
23404;SDS011;11875;49.356;2.718;2024-01-15T04:32:26;29.30;;;14.30;;
23404;SDS011;11875;49.356;2.718;2024-01-15T04:34:52;30.97;;;14.47;;
23404;SDS011;11875;49.356;2.718;2024-01-15T04:37:17;29.43;;;14.80;;
23404;SDS011;11875;49.356;2.718;2024-01-15T04:39:43;34.93;;;14.87;;
23404;SDS011;11875;49.356;2.718;2024-01-15T04:42:08;27.93;;;14.20;;
23404;SDS011;11875;49.356;2.718;2024-01-15T04:44:34;30.57;;;14.47;;
23404;SDS011;11875;49.356;2.718;2024-01-15T04:47:00;30.53;;;14.00;;
23404;SDS011;11875;49.356;2.718;2024-01-15T04:49:25;29.23;;;13.47;;
23404;SDS011;11875;49.356;2.718;2024-01-15T04:51:52;31.73;;;13.77;;
23404;SDS011;11875;49.356;2.718;2024-01-15T04:54:18;29.50;;;15.03;;
23404;SDS011;11875;49.356;2.718;2024-01-15T04:56:44;27.23;;;14.03;;
23404;SDS011;11875;49.356;2.718;2024-01-15T04:59:10;29.23;;;13.93;;
23404;SDS011;11875;49.356;2.718;2024-01-15T05:01:36;35.40;;;15.57;;
23404;SDS011;11875;49.356;2.718;2024-01-15T05:04:01;28.27;;;13.30;;
23404;SDS011;11875;49.356;2.718;2024-01-15T05:06:27;27.77;;;13.23;;
23404;SDS011;11875;49.356;2.718;2024-01-15T05:08:53;31.47;;;14.87;;
23404;SDS011;11875;49.356;2.718;2024-01-15T05:11:18;29.73;;;13.57;;
23404;SDS011;11875;49.356;2.718;2024-01-15T05:13:44;33.87;;;15.37;;
23404;SDS011;11875;49.356;2.718;2024-01-15T05:16:10;29.20;;;14.57;;
23404;SDS011;11875;49.356;2.718;2024-01-15T05:18:35;28.53;;;13.57;;
23404;SDS011;11875;49.356;2.718;2024-01-15T05:21:02;31.70;;;14.40;;
23404;SDS011;11875;49.356;2.718;2024-01-15T05:23:28;33.47;;;15.67;;
23404;SDS011;11875;49.356;2.718;2024-01-15T05:25:55;28.17;;;13.63;;
23404;SDS011;11875;49.356;2.718;2024-01-15T05:28:21;29.33;;;14.47;;
23404;SDS011;11875;49.356;2.718;2024-01-15T05:30:47;33.57;;;13.67;;
23404;SDS011;11875;49.356;2.718;2024-01-15T05:33:12;29.40;;;14.23;;
23404;SDS011;11875;49.356;2.718;2024-01-15T05:35:38;30.67;;;14.97;;
23404;SDS011;11875;49.356;2.718;2024-01-15T05:38:03;32.20;;;14.97;;
23404;SDS011;11875;49.356;2.718;2024-01-15T05:40:29;32.97;;;15.17;;
23404;SDS011;11875;49.356;2.718;2024-01-15T05:42:55;33.27;;;15.57;;
23404;SDS011;11875;49.356;2.718;2024-01-15T05:45:20;30.43;;;15.00;;
23404;SDS011;11875;49.356;2.718;2024-01-15T05:47:46;31.80;;;15.10;;
23404;SDS011;11875;49.356;2.718;2024-01-15T05:50:11;29.10;;;14.03;;
23404;SDS011;11875;49.356;2.718;2024-01-15T05:52:37;29.07;;;14.33;;
23404;SDS011;11875;49.356;2.718;2024-01-15T05:55:03;31.47;;;15.90;;
23404;SDS011;11875;49.356;2.718;2024-01-15T05:57:29;33.53;;;15.93;;
23404;SDS011;11875;49.356;2.718;2024-01-15T05:59:55;34.33;;;16.03;;
23404;SDS011;11875;49.356;2.718;2024-01-15T06:02:21;34.23;;;15.60;;
23404;SDS011;11875;49.356;2.718;2024-01-15T06:04:47;33.70;;;14.77;;
23404;SDS011;11875;49.356;2.718;2024-01-15T06:07:12;36.70;;;15.83;;
23404;SDS011;11875;49.356;2.718;2024-01-15T06:09:38;41.27;;;19.13;;
23404;SDS011;11875;49.356;2.718;2024-01-15T06:12:04;66.07;;;29.57;;
23404;SDS011;11875;49.356;2.718;2024-01-15T06:14:32;101.73;;;45.60;;
23404;SDS011;11875;49.356;2.718;2024-01-15T06:16:57;96.87;;;40.73;;
23404;SDS011;11875;49.356;2.718;2024-01-15T06:19:23;159.20;;;62.97;;
23404;SDS011;11875;49.356;2.718;2024-01-15T06:21:48;53.73;;;27.60;;
23404;SDS011;11875;49.356;2.718;2024-01-15T06:24:14;65.93;;;30.17;;
23404;SDS011;11875;49.356;2.718;2024-01-15T06:26:40;38.47;;;16.17;;
23404;SDS011;11875;49.356;2.718;2024-01-15T06:29:06;36.17;;;18.23;;
23404;SDS011;11875;49.356;2.718;2024-01-15T06:31:32;39.53;;;19.47;;
23404;SDS011;11875;49.356;2.718;2024-01-15T06:33:58;55.30;;;27.67;;
23404;SDS011;11875;49.356;2.718;2024-01-15T06:36:23;54.00;;;25.87;;
23404;SDS011;11875;49.356;2.718;2024-01-15T06:38:49;63.87;;;32.70;;
23404;SDS011;11875;49.356;2.718;2024-01-15T06:41:15;48.83;;;25.80;;
23404;SDS011;11875;49.356;2.718;2024-01-15T06:43:40;31.97;;;14.43;;
23404;SDS011;11875;49.356;2.718;2024-01-15T06:46:06;40.60;;;19.43;;
23404;SDS011;11875;49.356;2.718;2024-01-15T06:48:32;36.67;;;18.07;;
23404;SDS011;11875;49.356;2.718;2024-01-15T06:50:57;35.57;;;16.03;;
23404;SDS011;11875;49.356;2.718;2024-01-15T06:53:23;29.00;;;14.37;;
23404;SDS011;11875;49.356;2.718;2024-01-15T06:55:48;41.47;;;20.03;;
23404;SDS011;11875;49.356;2.718;2024-01-15T06:58:16;38.03;;;18.37;;
23404;SDS011;11875;49.356;2.718;2024-01-15T07:00:41;29.60;;;14.80;;
23404;SDS011;11875;49.356;2.718;2024-01-15T07:03:07;30.43;;;13.30;;
23404;SDS011;11875;49.356;2.718;2024-01-15T07:05:33;37.97;;;17.03;;
23404;SDS011;11875;49.356;2.718;2024-01-15T07:07:58;29.93;;;13.87;;
23404;SDS011;11875;49.356;2.718;2024-01-15T07:10:24;55.40;;;26.23;;
23404;SDS011;11875;49.356;2.718;2024-01-15T07:12:51;53.37;;;25.00;;
23404;SDS011;11875;49.356;2.718;2024-01-15T07:15:16;48.23;;;22.57;;
23404;SDS011;11875;49.356;2.718;2024-01-15T07:17:42;48.23;;;24.50;;
23404;SDS011;11875;49.356;2.718;2024-01-15T07:20:08;36.23;;;17.03;;
23404;SDS011;11875;49.356;2.718;2024-01-15T07:22:37;38.50;;;17.47;;
23404;SDS011;11875;49.356;2.718;2024-01-15T07:25:03;44.83;;;23.83;;
23404;SDS011;11875;49.356;2.718;2024-01-15T07:27:30;39.90;;;18.00;;
23404;SDS011;11875;49.356;2.718;2024-01-15T07:29:56;45.13;;;21.03;;
23404;SDS011;11875;49.356;2.718;2024-01-15T07:32:23;64.17;;;32.03;;
23404;SDS011;11875;49.356;2.718;2024-01-15T07:34:48;54.30;;;26.53;;
23404;SDS011;11875;49.356;2.718;2024-01-15T07:37:14;51.37;;;28.13;;
23404;SDS011;11875;49.356;2.718;2024-01-15T07:39:40;31.10;;;15.57;;
23404;SDS011;11875;49.356;2.718;2024-01-15T07:42:06;29.30;;;14.03;;
23404;SDS011;11875;49.356;2.718;2024-01-15T07:44:32;32.87;;;15.37;;
23404;SDS011;11875;49.356;2.718;2024-01-15T07:46:58;35.40;;;14.67;;
23404;SDS011;11875;49.356;2.718;2024-01-15T07:49:24;33.63;;;14.33;;
23404;SDS011;11875;49.356;2.718;2024-01-15T07:51:50;31.13;;;15.73;;
23404;SDS011;11875;49.356;2.718;2024-01-15T07:54:15;42.07;;;19.73;;
23404;SDS011;11875;49.356;2.718;2024-01-15T07:56:57;36.87;;;20.00;;
23404;SDS011;11875;49.356;2.718;2024-01-15T07:59:24;36.23;;;18.47;;
23404;SDS011;11875;49.356;2.718;2024-01-15T08:01:50;29.23;;;14.87;;
23404;SDS011;11875;49.356;2.718;2024-01-15T08:04:16;23.27;;;11.43;;
23404;SDS011;11875;49.356;2.718;2024-01-15T08:06:42;29.53;;;13.13;;
23404;SDS011;11875;49.356;2.718;2024-01-15T08:09:08;33.43;;;16.37;;
23404;SDS011;11875;49.356;2.718;2024-01-15T08:11:34;33.70;;;14.47;;
23404;SDS011;11875;49.356;2.718;2024-01-15T08:14:00;30.17;;;16.33;;
23404;SDS011;11875;49.356;2.718;2024-01-15T08:16:25;23.13;;;11.93;;
23404;SDS011;11875;49.356;2.718;2024-01-15T08:18:52;20.03;;;10.57;;
23404;SDS011;11875;49.356;2.718;2024-01-15T08:21:21;22.37;;;10.00;;
23404;SDS011;11875;49.356;2.718;2024-01-15T08:23:47;20.90;;;11.30;;
23404;SDS011;11875;49.356;2.718;2024-01-15T08:26:13;30.07;;;15.60;;
23404;SDS011;11875;49.356;2.718;2024-01-15T08:28:38;29.90;;;13.93;;
23404;SDS011;11875;49.356;2.718;2024-01-15T08:31:04;37.20;;;17.47;;
23404;SDS011;11875;49.356;2.718;2024-01-15T08:33:30;26.60;;;15.03;;
23404;SDS011;11875;49.356;2.718;2024-01-15T08:35:55;32.20;;;16.37;;
23404;SDS011;11875;49.356;2.718;2024-01-15T08:38:21;31.87;;;15.23;;
23404;SDS011;11875;49.356;2.718;2024-01-15T08:40:48;30.43;;;17.00;;
23404;SDS011;11875;49.356;2.718;2024-01-15T08:43:14;29.03;;;14.10;;
23404;SDS011;11875;49.356;2.718;2024-01-15T08:45:40;30.37;;;13.40;;
23404;SDS011;11875;49.356;2.718;2024-01-15T08:48:06;23.13;;;11.83;;
23404;SDS011;11875;49.356;2.718;2024-01-15T08:50:32;25.87;;;12.03;;
23404;SDS011;11875;49.356;2.718;2024-01-15T08:52:58;24.33;;;11.70;;
23404;SDS011;11875;49.356;2.718;2024-01-15T08:55:24;23.67;;;12.40;;
23404;SDS011;11875;49.356;2.718;2024-01-15T08:57:50;19.43;;;10.50;;
23404;SDS011;11875;49.356;2.718;2024-01-15T09:00:16;24.07;;;11.23;;
23404;SDS011;11875;49.356;2.718;2024-01-15T09:02:44;22.57;;;10.97;;
23404;SDS011;11875;49.356;2.718;2024-01-15T09:05:10;23.47;;;10.73;;
23404;SDS011;11875;49.356;2.718;2024-01-15T09:07:35;21.90;;;12.03;;
23404;SDS011;11875;49.356;2.718;2024-01-15T09:10:01;20.27;;;11.23;;
23404;SDS011;11875;49.356;2.718;2024-01-15T09:12:27;22.33;;;8.70;;
23404;SDS011;11875;49.356;2.718;2024-01-15T09:14:52;15.80;;;7.93;;
23404;SDS011;11875;49.356;2.718;2024-01-15T09:17:19;17.23;;;7.03;;
23404;SDS011;11875;49.356;2.718;2024-01-15T09:19:45;15.43;;;7.33;;
23404;SDS011;11875;49.356;2.718;2024-01-15T09:22:12;13.80;;;7.20;;
23404;SDS011;11875;49.356;2.718;2024-01-15T09:24:40;13.07;;;7.07;;
23404;SDS011;11875;49.356;2.718;2024-01-15T09:27:07;14.70;;;7.17;;
23404;SDS011;11875;49.356;2.718;2024-01-15T09:29:32;16.30;;;6.80;;
23404;SDS011;11875;49.356;2.718;2024-01-15T09:31:58;14.47;;;7.23;;
23404;SDS011;11875;49.356;2.718;2024-01-15T09:34:23;14.00;;;7.43;;
23404;SDS011;11875;49.356;2.718;2024-01-15T09:36:49;10.33;;;6.03;;
23404;SDS011;11875;49.356;2.718;2024-01-15T09:39:15;9.43;;;5.47;;
23404;SDS011;11875;49.356;2.718;2024-01-15T09:41:40;13.10;;;5.77;;
23404;SDS011;11875;49.356;2.718;2024-01-15T09:44:06;9.20;;;5.33;;
23404;SDS011;11875;49.356;2.718;2024-01-15T09:46:33;9.00;;;5.50;;
23404;SDS011;11875;49.356;2.718;2024-01-15T09:49:00;9.63;;;5.37;;
23404;SDS011;11875;49.356;2.718;2024-01-15T09:51:27;7.90;;;5.10;;
23404;SDS011;11875;49.356;2.718;2024-01-15T09:53:56;9.40;;;4.93;;
23404;SDS011;11875;49.356;2.718;2024-01-15T09:56:22;8.73;;;4.93;;
23404;SDS011;11875;49.356;2.718;2024-01-15T09:58:49;9.67;;;5.23;;
23404;SDS011;11875;49.356;2.718;2024-01-15T10:01:18;8.30;;;4.00;;
23404;SDS011;11875;49.356;2.718;2024-01-15T10:03:46;8.13;;;4.07;;
23404;SDS011;11875;49.356;2.718;2024-01-15T10:06:14;6.90;;;4.13;;
23404;SDS011;11875;49.356;2.718;2024-01-15T10:08:50;6.40;;;3.57;;
23404;SDS011;11875;49.356;2.718;2024-01-15T10:11:16;5.43;;;3.40;;
23404;SDS011;11875;49.356;2.718;2024-01-15T10:13:45;6.87;;;3.20;;
23404;SDS011;11875;49.356;2.718;2024-01-15T10:16:11;7.40;;;3.47;;
23404;SDS011;11875;49.356;2.718;2024-01-15T10:18:37;6.23;;;2.93;;
23404;SDS011;11875;49.356;2.718;2024-01-15T10:21:05;6.17;;;2.70;;
23404;SDS011;11875;49.356;2.718;2024-01-15T10:23:32;3.60;;;2.33;;
23404;SDS011;11875;49.356;2.718;2024-01-15T10:25:58;4.87;;;2.23;;
23404;SDS011;11875;49.356;2.718;2024-01-15T10:28:26;3.23;;;2.20;;
23404;SDS011;11875;49.356;2.718;2024-01-15T10:30:52;7.33;;;2.27;;
23404;SDS011;11875;49.356;2.718;2024-01-15T10:33:22;2.83;;;1.40;;
23404;SDS011;11875;49.356;2.718;2024-01-15T10:35:51;5.20;;;1.80;;
23404;SDS011;11875;49.356;2.718;2024-01-15T10:38:20;2.33;;;1.37;;
23404;SDS011;11875;49.356;2.718;2024-01-15T10:40:47;2.20;;;1.10;;
23404;SDS011;11875;49.356;2.718;2024-01-15T10:43:16;4.70;;;1.37;;
23404;SDS011;11875;49.356;2.718;2024-01-15T10:45:45;3.20;;;1.33;;
23404;SDS011;11875;49.356;2.718;2024-01-15T10:48:11;3.40;;;1.20;;
23404;SDS011;11875;49.356;2.718;2024-01-15T10:50:37;1.73;;;1.10;;
23404;SDS011;11875;49.356;2.718;2024-01-15T10:53:04;2.37;;;1.30;;
23404;SDS011;11875;49.356;2.718;2024-01-15T10:55:30;2.80;;;1.10;;
23404;SDS011;11875;49.356;2.718;2024-01-15T10:57:57;7.30;;;1.10;;
23404;SDS011;11875;49.356;2.718;2024-01-15T11:00:23;2.47;;;1.23;;
23404;SDS011;11875;49.356;2.718;2024-01-15T11:02:50;2.37;;;1.40;;
23404;SDS011;11875;49.356;2.718;2024-01-15T11:05:16;1.67;;;1.10;;
23404;SDS011;11875;49.356;2.718;2024-01-15T11:07:47;2.80;;;1.13;;
23404;SDS011;11875;49.356;2.718;2024-01-15T11:13:08;3.07;;;1.00;;
23404;SDS011;11875;49.356;2.718;2024-01-15T11:15:54;2.83;;;1.17;;
23404;SDS011;11875;49.356;2.718;2024-01-15T11:18:23;3.20;;;1.57;;
23404;SDS011;11875;49.356;2.718;2024-01-15T11:34:20;2.70;;;0.83;;
23404;SDS011;11875;49.356;2.718;2024-01-15T11:37:06;4.37;;;1.00;;
23404;SDS011;11875;49.356;2.718;2024-01-15T11:41:58;3.73;;;1.10;;
23404;SDS011;11875;49.356;2.718;2024-01-15T11:44:28;5.27;;;0.93;;
23404;SDS011;11875;49.356;2.718;2024-01-15T11:46:59;4.80;;;1.10;;
23404;SDS011;11875;49.356;2.718;2024-01-15T11:52:05;4.13;;;1.10;;
23404;SDS011;11875;49.356;2.718;2024-01-15T11:54:33;17.30;;;2.13;;
23404;SDS011;11875;49.356;2.718;2024-01-15T11:57:04;4.43;;;1.20;;
23404;SDS011;11875;49.356;2.718;2024-01-15T11:59:35;4.37;;;1.37;;
23404;SDS011;11875;49.356;2.718;2024-01-15T12:02:01;1.53;;;0.97;;
23404;SDS011;11875;49.356;2.718;2024-01-15T12:04:28;2.50;;;0.90;;
23404;SDS011;11875;49.356;2.718;2024-01-15T12:06:53;5.27;;;1.50;;
23404;SDS011;11875;49.356;2.718;2024-01-15T12:09:19;3.97;;;1.23;;
23404;SDS011;11875;49.356;2.718;2024-01-15T12:11:47;3.27;;;1.00;;
23404;SDS011;11875;49.356;2.718;2024-01-15T12:14:20;2.00;;;1.20;;
23404;SDS011;11875;49.356;2.718;2024-01-15T12:16:47;3.07;;;0.87;;
23404;SDS011;11875;49.356;2.718;2024-01-15T12:19:13;1.63;;;0.80;;
23404;SDS011;11875;49.356;2.718;2024-01-15T12:21:40;3.97;;;0.90;;
23404;SDS011;11875;49.356;2.718;2024-01-15T12:24:07;3.87;;;1.20;;
23404;SDS011;11875;49.356;2.718;2024-01-15T12:26:33;3.77;;;1.03;;
23404;SDS011;11875;49.356;2.718;2024-01-15T12:29:01;1.87;;;1.10;;
23404;SDS011;11875;49.356;2.718;2024-01-15T12:31:27;3.00;;;1.23;;
23404;SDS011;11875;49.356;2.718;2024-01-15T12:33:55;3.13;;;1.10;;
23404;SDS011;11875;49.356;2.718;2024-01-15T12:36:21;3.37;;;0.90;;
23404;SDS011;11875;49.356;2.718;2024-01-15T12:38:47;4.37;;;2.17;;
23404;SDS011;11875;49.356;2.718;2024-01-15T12:41:12;3.23;;;1.43;;
23404;SDS011;11875;49.356;2.718;2024-01-15T12:43:38;6.43;;;1.00;;
23404;SDS011;11875;49.356;2.718;2024-01-15T12:46:05;3.70;;;1.40;;
23404;SDS011;11875;49.356;2.718;2024-01-15T12:48:31;5.83;;;2.10;;
23404;SDS011;11875;49.356;2.718;2024-01-15T12:50:57;2.30;;;0.80;;
23404;SDS011;11875;49.356;2.718;2024-01-15T12:53:22;4.77;;;2.30;;
23404;SDS011;11875;49.356;2.718;2024-01-15T12:55:48;2.87;;;1.40;;
23404;SDS011;11875;49.356;2.718;2024-01-15T12:58:14;7.20;;;2.93;;
23404;SDS011;11875;49.356;2.718;2024-01-15T13:00:39;4.23;;;1.60;;
23404;SDS011;11875;49.356;2.718;2024-01-15T13:03:05;1.37;;;1.00;;
23404;SDS011;11875;49.356;2.718;2024-01-15T13:05:32;4.50;;;1.10;;
23404;SDS011;11875;49.356;2.718;2024-01-15T13:07:59;4.90;;;1.17;;
23404;SDS011;11875;49.356;2.718;2024-01-15T13:10:24;3.00;;;0.97;;
23404;SDS011;11875;49.356;2.718;2024-01-15T13:12:50;1.57;;;0.87;;
23404;SDS011;11875;49.356;2.718;2024-01-15T13:15:16;9.57;;;1.30;;
23404;SDS011;11875;49.356;2.718;2024-01-15T13:17:42;1.17;;;0.90;;
23404;SDS011;11875;49.356;2.718;2024-01-15T13:20:08;3.33;;;1.00;;
23404;SDS011;11875;49.356;2.718;2024-01-15T13:22:35;9.77;;;1.10;;
23404;SDS011;11875;49.356;2.718;2024-01-15T13:25:04;3.13;;;0.90;;
23404;SDS011;11875;49.356;2.718;2024-01-15T13:27:32;8.67;;;1.27;;
23404;SDS011;11875;49.356;2.718;2024-01-15T13:29:59;7.13;;;2.33;;
23404;SDS011;11875;49.356;2.718;2024-01-15T13:32:25;3.97;;;1.70;;
23404;SDS011;11875;49.356;2.718;2024-01-15T13:34:53;11.23;;;2.23;;
23404;SDS011;11875;49.356;2.718;2024-01-15T13:37:20;5.00;;;1.93;;
23404;SDS011;11875;49.356;2.718;2024-01-15T13:39:46;4.80;;;0.80;;
23404;SDS011;11875;49.356;2.718;2024-01-15T13:42:11;3.63;;;0.93;;
23404;SDS011;11875;49.356;2.718;2024-01-15T13:44:37;4.07;;;1.20;;
23404;SDS011;11875;49.356;2.718;2024-01-15T13:47:03;4.00;;;2.40;;
23404;SDS011;11875;49.356;2.718;2024-01-15T13:49:30;3.13;;;1.40;;
23404;SDS011;11875;49.356;2.718;2024-01-15T13:51:55;1.90;;;0.90;;
23404;SDS011;11875;49.356;2.718;2024-01-15T13:54:22;11.97;;;2.07;;
23404;SDS011;11875;49.356;2.718;2024-01-15T13:56:47;3.33;;;0.70;;
23404;SDS011;11875;49.356;2.718;2024-01-15T13:59:14;7.10;;;3.43;;
23404;SDS011;11875;49.356;2.718;2024-01-15T14:01:40;7.67;;;1.30;;
23404;SDS011;11875;49.356;2.718;2024-01-15T14:04:07;2.07;;;1.10;;
23404;SDS011;11875;49.356;2.718;2024-01-15T14:06:32;8.13;;;1.10;;
23404;SDS011;11875;49.356;2.718;2024-01-15T14:08:58;2.73;;;0.80;;
23404;SDS011;11875;49.356;2.718;2024-01-15T14:11:24;6.77;;;1.10;;
23404;SDS011;11875;49.356;2.718;2024-01-15T14:13:50;3.90;;;1.67;;
23404;SDS011;11875;49.356;2.718;2024-01-15T14:16:16;5.03;;;1.30;;
23404;SDS011;11875;49.356;2.718;2024-01-15T14:18:41;6.53;;;1.80;;
23404;SDS011;11875;49.356;2.718;2024-01-15T14:21:07;4.70;;;1.20;;
23404;SDS011;11875;49.356;2.718;2024-01-15T14:23:32;3.03;;;1.83;;
23404;SDS011;11875;49.356;2.718;2024-01-15T14:25:58;11.27;;;1.30;;
23404;SDS011;11875;49.356;2.718;2024-01-15T14:28:24;3.70;;;1.00;;
23404;SDS011;11875;49.356;2.718;2024-01-15T14:30:49;2.50;;;1.23;;
23404;SDS011;11875;49.356;2.718;2024-01-15T14:33:16;5.00;;;0.90;;
23404;SDS011;11875;49.356;2.718;2024-01-15T14:35:42;4.67;;;1.53;;
23404;SDS011;11875;49.356;2.718;2024-01-15T14:38:07;3.43;;;1.27;;
23404;SDS011;11875;49.356;2.718;2024-01-15T14:40:34;5.20;;;1.30;;
23404;SDS011;11875;49.356;2.718;2024-01-15T14:43:00;2.17;;;1.00;;
23404;SDS011;11875;49.356;2.718;2024-01-15T14:45:26;2.27;;;0.93;;
23404;SDS011;11875;49.356;2.718;2024-01-15T14:47:52;3.43;;;1.30;;